This is the latest recevied weather packets stored in our database for station/object IW1RCO-13. If no packets are shown the sender has not sent any weather packets the latest 10 day(s).
| Time | Temp. | Humidity | Pressure | Rain* | Wind** | Luminosity | Snow |
|---|---|---|---|---|---|---|---|
| 1788605972 | 26.11° C | 71% | 1019.8 hPa | - | - | - | - |
| 1788605669 | 26.67° C | 71% | 1019 hPa | - | - | - | - |
| 1788605372 | 25° C | 75% | 1019.5 hPa | - | - | - | - |
| 1788604468 | 24.44° C | 76% | 1019.3 hPa | - | - | - | - |
| 1788604172 | 25.56° C | 74% | 1019.6 hPa | - | - | - | - |
| 1788603868 | 26.11° C | 71% | 1019.8 hPa | - | - | - | - |
| 1788603571 | 26.11° C | 72% | 1019.6 hPa | - | - | - | - |
| 1788603268 | 26.11° C | 70% | 1019.5 hPa | - | - | - | - |
| 1788602971 | 26.11° C | 67% | 1019.4 hPa | - | - | - | - |
| 1788602668 | 26.11° C | 69% | 1019.8 hPa | - | - | - | - |
| 1788602371 | 26.11° C | 70% | 1019.6 hPa | - | - | - | - |
| 1788602067 | 26.11° C | 68% | 1019.5 hPa | - | - | - | - |
| 1788601771 | 25.56° C | 69% | 1019 hPa | - | - | - | - |
| 1788601467 | 25.56° C | 72% | 1019.3 hPa | - | - | - | - |
| 1788601170 | 25.56° C | 70% | 1019.6 hPa | - | - | - | - |
| 1788600867 | 25.56° C | 72% | 1019.8 hPa | - | - | - | - |
| 1788600570 | 24.44° C | 75% | 1019.5 hPa | - | - | - | - |
| 1788600273 | 24.44° C | 72% | 1019.1 hPa | - | - | - | - |
| 1788599970 | 24.44° C | 73% | 1019.4 hPa | - | - | - | - |
| 1788599673 | 24.44° C | 72% | 1020 hPa | - | - | - | - |
| 1788599370 | 23.89° C | 73% | 1019.3 hPa | - | - | - | - |
| 1788599073 | 23.89° C | 72% | 1019.9 hPa | - | - | - | - |
| 1788598769 | 23.89° C | 71% | 1019.3 hPa | - | - | - | - |
| 1788598169 | 23.33° C | 72% | 1019.6 hPa | - | - | - | - |
| 1788597872 | 23.89° C | 71% | 1019.7 hPa | - | - | - | - |
* Rain since midnight (hover to see other rain measurements)
** Current wind speed in m/s (hover to see current wind gust speed)